Time;durP1;ratioP1;P1;durP2;ratioP2;P2;SDS_P1;SDS_P2;PMS_P1;PMS_P2;Temp;Humidity;BMP_temperature;BMP_pressure;BME280_temperature;BME280_humidity;BME280_pressure;Samples;Min_cycle;Max_cycle;Signal;HPM_P1;HPM_P2
2023/05/02 00:03:51;;;;;;;1.50;0.90;;;10.60;78.60;;;9.28;67.27;100219.38;10386837;28;96570;-91
2023/05/02 00:08:55;;;;;;;1.80;1.13;;;10.60;78.80;;;9.33;67.49;100227.69;10388042;28;96615;-91
2023/05/02 00:13:58;;;;;;;2.50;1.20;;;10.70;79.10;;;9.37;68.16;100221.09;10402893;28;98115;-93
2023/05/02 00:19:01;;;;;;;1.73;1.20;;;10.70;80.10;;;9.44;67.93;100218.63;10382169;28;96619;-91
2023/05/02 00:24:04;;;;;;;3.63;1.30;;;10.80;80.40;;;9.51;68.11;100219.63;10387188;28;96977;-90
2023/05/02 00:29:07;;;;;;;3.57;1.10;;;10.80;80.60;;;9.58;68.24;100218.00;10368278;28;96732;-94
2023/05/02 00:34:10;;;;;;;2.60;1.10;;;10.90;80.90;;;9.65;68.23;100215.53;10404327;28;97158;-92
2023/05/02 00:39:14;;;;;;;2.07;1.30;;;11.00;81.40;;;9.69;68.25;100208.91;10402719;28;97644;-91
2023/05/02 00:44:17;;;;;;;2.37;1.20;;;11.00;81.50;;;9.74;68.29;100206.63;10400030;28;96628;-93
2023/05/02 00:49:20;;;;;;;1.90;1.00;;;11.10;82.10;;;9.78;68.35;100221.22;10401515;27;96534;-94
2023/05/02 00:54:23;;;;;;;2.63;1.20;;;11.10;82.20;;;9.85;68.19;100218.75;10387879;28;96506;-94
2023/05/02 00:59:26;;;;;;;3.90;1.17;;;11.20;82.10;;;9.87;68.33;100220.22;10372119;28;96569;-94
2023/05/02 01:04:56;;;;;;;2.80;1.00;;;11.20;82.30;;;9.88;68.25;100224.53;10389883;28;97150;-93
2023/05/02 01:10:13;;;;;;;3.57;1.57;;;11.30;82.50;;;9.84;68.61;100222.41;10411532;28;96678;-94
2023/05/02 01:15:21;;;;;;;3.10;1.47;;;11.20;83.10;;;9.78;69.11;100225.72;10389574;28;97200;-94
2023/05/02 01:20:28;;;;;;;3.90;1.67;;;11.10;83.80;;;9.72;69.42;100224.53;10379437;28;96548;-94
2023/05/02 01:25:36;;;;;;;2.33;1.07;;;11.10;84.00;;;9.67;69.39;100216.22;10373859;28;96447;-94
2023/05/02 01:30:43;;;;;;;2.60;1.20;;;11.00;84.20;;;9.69;69.29;100222.19;10389609;28;97336;-92
2023/05/02 01:35:51;;;;;;;1.70;0.97;;;11.10;84.50;;;9.69;69.67;100218.69;10385326;28;96649;-91
2023/05/02 01:40:57;;;;;;;2.07;1.10;;;11.00;85.00;;;9.60;69.61;100205.41;10401755;28;96598;-90
2023/05/02 01:46:03;;;;;;;2.33;1.20;;;11.00;85.40;;;9.65;69.46;100208.44;10382534;28;98606;-90
2023/05/02 01:51:07;;;;;;;2.20;1.13;;;11.00;85.50;;;9.61;69.47;100200.94;10383485;28;96745;-90
2023/05/02 01:56:11;;;;;;;1.87;1.13;;;10.90;85.90;;;9.60;69.53;100209.91;10396460;28;97566;-90
2023/05/02 02:01:16;;;;;;;2.97;1.07;;;10.90;85.90;;;9.58;69.08;100203.91;10382804;28;97310;-91
2023/05/02 02:06:21;;;;;;;1.60;1.10;;;10.90;86.10;;;9.57;67.65;100204.91;10416349;28;96433;-90
2023/05/02 02:11:39;;;;;;;2.00;1.10;;;10.90;85.60;;;9.58;66.74;100195.94;10375091;28;96591;-89
2023/05/02 02:16:43;;;;;;;2.83;1.37;;;10.90;85.20;;;9.58;66.78;100196.78;10385460;28;96977;-89
2023/05/02 02:21:48;;;;;;;2.10;0.83;;;10.90;85.10;;;9.56;66.98;100192.63;10398049;28;96829;-90
2023/05/02 02:26:51;;;;;;;1.37;0.90;;;10.90;85.20;;;9.48;67.42;100184.66;10364599;28;97592;-90
2023/05/02 02:31:54;;;;;;;2.43;1.17;;;10.90;85.60;;;9.49;67.44;100188.97;10376013;28;96822;-90
2023/05/02 02:37:17;;;;;;;2.70;1.30;;;10.90;85.70;;;9.50;67.63;100190.63;10412304;28;98755;-93
2023/05/02 02:42:42;;;;;;;11.67;4.37;;;10.90;85.70;;;9.47;68.79;100193.59;10418113;28;97172;-94
2023/05/02 02:48:06;;;;;;;6.53;3.50;;;10.90;86.80;;;9.40;68.60;100180.13;10417048;27;97383;-93
2023/05/02 02:53:18;;;;;;;6.67;3.53;;;10.80;86.70;;;9.32;68.74;100190.72;10382311;28;96646;-94
2023/05/02 02:58:46;;;;;;;6.73;2.43;;;10.70;87.20;;;9.25;68.98;100185.22;10361032;28;96733;-93
2023/05/02 03:03:52;;;;;;;6.77;2.50;;;10.70;87.20;;;9.23;68.78;100187.19;10386767;28;96886;-93
2023/05/02 03:08:55;;;;;;;3.43;2.23;;;10.60;87.30;;;9.19;68.33;100196.47;10382202;28;96818;-89
2023/05/02 03:13:58;;;;;;;3.30;1.70;;;10.60;87.10;;;9.14;68.10;100201.41;10402821;27;97394;-89
2023/05/02 03:19:03;;;;;;;2.77;1.67;;;10.60;87.40;;;9.07;68.49;100197.75;10385484;28;96528;-89
2023/05/02 03:24:06;;;;;;;10.17;3.23;;;10.50;87.90;;;9.03;69.02;100207.00;10386374;28;96475;-92
2023/05/02 03:29:09;;;;;;;6.03;2.93;;;10.40;87.80;;;8.95;69.14;100201.66;10403990;28;96456;-91
2023/05/02 03:34:12;;;;;;;9.47;4.20;;;10.40;88.10;;;8.83;69.84;100191.31;10404488;28;96625;-86
2023/05/02 03:39:16;;;;;;;14.10;4.93;;;10.30;88.40;;;8.80;69.99;100212.81;10384692;28;96876;-86
2023/05/02 03:44:19;;;;;;;13.57;6.30;;;10.20;88.70;;;8.71;70.37;100216.41;10385774;28;97122;-87
2023/05/02 03:49:22;;;;;;;14.80;6.33;;;10.20;89.40;;;8.70;70.66;100219.22;10393930;27;96639;-86
2023/05/02 03:54:25;;;;;;;12.83;4.77;;;10.10;89.60;;;8.68;71.22;100229.13;10384520;28;97502;-85
2023/05/02 03:59:28;;;;;;;8.80;4.00;;;10.10;90.20;;;8.64;72.18;100222.50;10419861;28;96515;-85
2023/05/02 04:04:31;;;;;;;7.83;3.60;;;10.00;90.50;;;8.66;72.37;100226.63;10422941;27;98229;-86
2023/05/02 04:09:34;;;;;;;12.90;5.20;;;10.10;90.90;;;8.79;72.49;100231.53;10374344;28;98247;-85
2023/05/02 04:14:38;;;;;;;7.63;3.00;;;10.10;91.00;;;8.91;72.40;100229.44;10398316;28;96615;-86
2023/05/02 04:19:41;;;;;;;4.67;2.10;;;10.20;91.10;;;9.04;72.31;100235.16;10377906;28;97159;-86
2023/05/02 04:24:44;;;;;;;4.73;2.47;;;10.40;91.30;;;9.14;72.31;100235.88;10417639;27;96912;-85
2023/05/02 04:29:49;;;;;;;6.70;3.00;;;10.50;91.40;;;9.27;72.72;100238.09;10394736;28;97376;-86
2023/05/02 04:34:52;;;;;;;6.03;2.47;;;10.60;91.70;;;9.47;72.70;100236.84;10393173;27;97874;-91
2023/05/02 04:39:55;;;;;;;8.97;2.43;;;10.80;91.60;;;9.70;72.68;100247.72;10387792;27;98559;-91
2023/05/02 04:44:59;;;;;;;5.80;2.27;;;10.90;91.80;;;9.92;72.95;100247.13;10415093;28;98112;-88
2023/05/02 04:50:02;;;;;;;3.47;2.17;;;11.20;92.00;;;10.16;72.64;100243.69;10367001;28;97777;-89
2023/05/02 04:55:06;;;;;;;25.70;8.03;;;11.40;92.10;;;10.44;72.46;100260.19;10373469;28;96535;-95
2023/05/02 05:00:10;;;;;;;92.10;23.43;;;11.70;92.20;;;10.72;72.06;100254.53;10371022;28;98329;-84
2023/05/02 05:05:13;;;;;;;18.60;5.03;;;11.90;92.30;;;11.05;71.01;100243.84;10392974;28;96657;-84
2023/05/02 05:10:16;;;;;;;94.50;22.30;;;12.20;92.00;;;11.40;69.60;100253.22;10379733;28;96606;-85
2023/05/02 05:15:21;;;;;;;221.03;49.03;;;12.60;91.50;;;11.73;66.56;100253.91;10396657;28;96757;-85
2023/05/02 05:20:24;;;;;;;401.47;90.83;;;12.90;90.80;;;12.11;64.52;100256.72;10410477;28;97930;-85
2023/05/02 05:25:27;;;;;;;141.93;32.10;;;13.30;90.20;;;12.41;63.05;100255.84;10381516;28;96769;-85
2023/05/02 05:30:31;;;;;;;273.40;60.27;;;13.60;89.40;;;12.72;61.88;100269.09;10376600;28;97196;-85
2023/05/02 05:35:34;;;;;;;122.67;25.60;;;13.90;88.30;;;12.99;60.22;100272.19;10381434;28;96605;-84
2023/05/02 05:40:37;;;;;;;82.33;16.67;;;14.20;87.00;;;13.22;58.67;100264.97;10365882;28;96927;-86
2023/05/02 05:45:40;;;;;;;73.10;14.43;;;14.40;85.70;;;13.43;58.49;100269.56;10376622;28;97433;-87
2023/05/02 05:50:43;;;;;;;22.33;4.30;;;14.70;84.70;;;13.59;58.37;100279.22;10372753;28;96725;-87
2023/05/02 05:55:46;;;;;;;30.10;8.10;;;14.80;84.00;;;13.74;58.27;100279.22;10386800;28;97519;-87
2023/05/02 06:00:49;;;;;;;20.10;5.77;;;14.90;83.70;;;13.91;57.08;100283.31;10378548;28;97153;-86
2023/05/02 06:05:52;;;;;;;18.83;4.43;;;15.10;82.90;;;14.08;56.28;100286.59;10392395;27;96794;-91
2023/05/02 06:10:55;;;;;;;24.27;7.03;;;15.30;82.20;;;14.22;56.82;100284.94;10398337;28;97006;-85
2023/05/02 06:16:02;;;;;;;20.95;5.60;;;15.50;81.80;;;14.34;56.57;100289.59;10381527;28;96647;-84
2023/05/02 06:21:05;;;;;;;10.75;3.60;;;15.60;81.50;;;14.44;56.33;100291.91;10381762;28;96482;-91
2023/05/02 06:26:09;;;;;;;39.80;9.73;;;15.70;80.90;;;14.62;56.57;100292.34;10376535;28;96554;-90
2023/05/02 06:31:12;;;;;;;24.10;6.35;;;15.90;80.80;;;14.85;56.23;100292.13;10382612;28;96600;-95
2023/05/02 06:36:15;;;;;;;8.85;3.33;;;16.10;80.50;;;15.04;54.94;100279.09;10396418;28;96981;-87
2023/05/02 06:41:19;;;;;;;12.07;4.30;;;16.30;79.60;;;15.26;54.41;100288.72;10382039;27;96648;-90
2023/05/02 06:46:23;;;;;;;29.23;8.48;;;16.50;79.10;;;15.45;54.13;100292.53;10398023;27;96490;-91
2023/05/02 06:51:26;;;;;;;6.97;2.75;;;16.70;78.60;;;15.66;53.06;100294.34;10404985;28;96838;-82
2023/05/02 06:56:30;;;;;;;50.88;11.35;;;16.90;77.50;;;15.84;52.43;100286.59;10407720;27;96584;-84
2023/05/02 07:01:33;;;;;;;8.68;3.30;;;17.10;76.50;;;16.07;51.04;100283.56;10404484;28;96762;-84
2023/05/02 07:06:36;;;;;;;9.55;3.42;;;17.30;75.40;;;16.34;51.32;100287.16;10383853;28;96943;-85
2023/05/02 07:11:39;;;;;;;11.63;3.33;;;17.50;75.10;;;16.43;49.78;100290.47;10387536;28;97026;-90
2023/05/02 07:16:42;;;;;;;23.17;6.40;;;17.70;73.20;;;16.53;49.89;100283.69;10409810;28;96615;-91
2023/05/02 07:21:45;;;;;;;8.27;3.53;;;17.80;72.60;;;16.68;49.65;100285.34;10404306;28;96585;-86
2023/05/02 07:26:48;;;;;;;6.13;2.53;;;17.90;72.70;;;16.93;49.28;100283.72;10387284;28;96689;-88
2023/05/02 07:31:51;;;;;;;6.93;3.28;;;18.20;72.10;;;17.13;48.14;100276.47;10381278;27;96678;-85
2023/05/02 07:36:54;;;;;;;17.77;6.68;;;18.40;71.00;;;17.42;48.47;100270.84;10428210;27;96548;-87
2023/05/02 07:41:58;;;;;;;8.25;3.10;;;18.60;71.10;;;17.63;47.84;100275.94;10389012;28;97104;-87
2023/05/02 07:47:01;;;;;;;4.88;2.55;;;18.90;70.20;;;17.94;47.23;100271.75;10388780;27;97596;-91
2023/05/02 07:52:04;;;;;;;4.55;2.88;;;19.20;68.90;;;18.17;46.06;100263.94;10395194;28;96550;-87
2023/05/02 07:57:07;;;;;;;5.68;3.22;;;19.50;68.10;;;18.49;45.64;100269.34;10411265;28;96898;-84
2023/05/02 08:02:12;;;;;;;4.82;2.40;;;19.70;67.80;;;18.62;45.43;100263.84;10403225;28;97008;-85
2023/05/02 08:07:16;;;;;;;4.55;2.92;;;19.90;66.60;;;18.94;45.75;100276.25;10371248;28;96655;-85
2023/05/02 08:12:19;;;;;;;4.82;3.00;;;20.10;67.10;;;19.06;44.91;100270.13;10382127;28;96928;-85
2023/05/02 08:17:22;;;;;;;4.18;2.50;;;20.30;65.90;;;19.17;43.56;100264.84;10402876;28;96528;-89
2023/05/02 08:22:25;;;;;;;5.15;2.28;;;20.40;65.10;;;19.06;43.18;100268.25;10398964;27;96577;-88
2023/05/02 08:27:28;;;;;;;4.03;2.15;;;20.50;63.30;;;19.19;44.36;100267.31;10413656;28;96543;-88
2023/05/02 08:32:31;;;;;;;4.10;2.10;;;20.50;64.30;;;19.33;43.82;100268.00;10400525;28;96645;-92
2023/05/02 08:37:35;;;;;;;3.15;1.90;;;20.60;63.50;;;19.56;43.61;100265.47;10418990;28;96503;-85
2023/05/02 08:42:43;;;;;;;4.65;2.15;;;20.80;63.40;;;19.62;42.09;100277.25;10409732;27;96794;-79
2023/05/02 08:47:48;;;;;;;3.53;2.13;;;21.00;61.90;;;19.67;41.26;100255.81;10412102;27;97340;-89
2023/05/02 08:52:53;;;;;;;3.95;2.20;;;21.00;60.80;;;19.73;42.20;100254.91;10401058;28;96554;-90
2023/05/02 08:57:57;;;;;;;3.22;2.03;;;21.00;61.50;;;20.20;42.19;100257.81;10393667;28;97337;-90
2023/05/02 09:03:32;;;;;;;3.53;2.25;;;21.40;61.90;;;20.37;41.27;100255.31;10400654;28;97532;-91
2023/05/02 09:08:36;;;;;;;3.35;2.17;;;21.60;61.00;;;20.71;41.27;100251.06;10401677;28;97247;-88
2023/05/02 09:13:42;;;;;;;3.25;2.28;;;21.90;60.50;;;20.91;40.01;100256.94;10392668;27;97173;-88
2023/05/02 09:18:47;;;;;;;3.75;2.08;;;22.20;59.70;;;20.93;40.25;100257.56;10359527;28;96551;-89
2023/05/02 09:23:56;;;;;;;3.05;2.13;;;22.30;59.30;;;21.32;40.90;100236.28;10410161;28;96474;-90
2023/05/02 09:29:03;;;;;;;3.80;1.88;;;22.50;59.80;;;21.36;38.74;100243.69;10414197;27;96619;-90
2023/05/02 09:34:15;;;;;;;2.72;1.90;;;22.70;58.00;;;21.30;39.27;100243.81;10383333;28;96510;-91
2023/05/02 09:39:28;;;;;;;4.07;1.85;;;22.70;58.10;;;21.45;39.31;100235.19;10381358;28;97410;-89
2023/05/02 09:44:38;;;;;;;3.58;1.73;;;22.70;58.00;;;21.57;38.90;100234.09;10352727;28;97805;-91
2023/05/02 09:49:45;;;;;;;;;;;22.80;57.70;;;21.75;38.29;100222.28;10400069;28;97539;-91
2023/05/02 09:54:51;;;;;;;2.40;1.60;;;23.00;57.80;;;22.02;38.09;100217.16;10365029;28;96582;-91
2023/05/02 09:59:57;;;;;;;3.20;1.70;;;23.20;56.80;;;21.96;37.40;100222.72;10403167;28;96652;-90
2023/05/02 10:05:03;;;;;;;3.38;1.80;;;23.30;55.90;;;21.88;37.24;100218.47;10386522;27;96607;-92
2023/05/02 10:10:11;;;;;;;3.92;2.20;;;23.10;55.90;;;21.87;38.86;100225.78;10424328;27;96951;-90
2023/05/02 10:15:17;;;;;;;3.65;1.70;;;23.20;57.00;;;21.76;38.48;100209.59;10399418;28;96538;-90
2023/05/02 10:20:36;;;;;;;4.05;1.80;;;23.10;56.70;;;21.81;38.95;100207.00;10393671;28;98335;-90
2023/05/02 10:25:40;;;;;;;3.60;1.73;;;23.10;56.90;;;21.96;37.58;100204.59;10379301;28;96991;-91
2023/05/02 10:30:44;;;;;;;2.97;1.60;;;23.30;56.00;;;22.30;37.58;100200.06;10391937;28;97039;-87
2023/05/02 10:35:47;;;;;;;5.00;1.70;;;23.60;55.80;;;22.35;36.96;100197.44;10390788;28;97834;-85
2023/05/02 10:41:00;;;;;;;2.40;1.63;;;23.80;54.60;;;22.79;35.68;100196.75;10400600;27;97205;-89
2023/05/02 10:46:23;;;;;;;2.42;1.63;;;24.00;54.60;;;22.88;35.87;100196.13;10393981;28;96927;-88
2023/05/02 10:51:30;;;;;;;3.75;1.85;;;24.20;53.80;;;23.12;35.31;100190.50;10387185;27;98765;-90
2023/05/02 10:56:33;;;;;;;2.38;1.50;;;24.40;53.30;;;23.34;36.20;100187.81;10392911;28;96668;-89
2023/05/02 11:01:38;;;;;;;6.05;1.80;;;24.70;53.80;;;23.39;35.07;100183.28;10390325;28;96814;-90
2023/05/02 11:07:04;;;;;;;4.18;1.48;;;24.80;52.50;;;23.24;34.75;100186.59;10397580;28;96840;-94
2023/05/02 11:12:07;;;;;;;2.40;1.38;;;24.60;51.60;;;23.34;34.75;100193.25;10386037;28;96858;-94
2023/05/02 11:17:10;;;;;;;5.82;1.77;;;24.60;52.10;;;23.32;34.95;100190.75;10401444;28;96571;-96
2023/05/02 11:22:19;;;;;;;2.97;1.70;;;24.60;52.20;;;23.26;35.38;100188.25;10416051;28;96520;-93
2023/05/02 11:27:28;;;;;;;2.78;1.85;;;24.60;52.70;;;23.12;35.62;100180.47;10398786;28;96740;-89
2023/05/02 11:32:48;;;;;;;4.55;2.00;;;24.60;52.80;;;23.13;35.29;100187.53;10410558;27;96631;-88
2023/05/02 11:37:55;;;;;;;2.70;1.77;;;24.50;52.70;;;23.03;35.61;100176.56;10410283;28;96623;-94
2023/05/02 11:43:00;;;;;;;4.53;1.88;;;24.50;52.70;;;22.93;35.77;100179.13;10388834;28;96575;-88
2023/05/02 11:48:07;;;;;;;4.78;1.60;;;24.40;52.80;;;23.01;35.25;100180.59;10412444;28;96847;-90
2023/05/02 11:53:16;;;;;;;4.60;2.10;;;24.60;52.00;;;23.44;35.19;100177.88;10395676;28;97911;-92
2023/05/02 11:58:28;;;;;;;3.80;1.83;;;24.90;52.40;;;23.26;35.42;100177.38;10398522;28;98063;-90
2023/05/02 12:03:32;;;;;;;3.42;1.63;;;24.90;51.90;;;23.29;35.43;100171.47;10386221;28;97514;-91
2023/05/02 12:08:36;;;;;;;3.45;1.83;;;24.90;52.30;;;23.32;36.15;100162.81;10404697;28;97495;-89
2023/05/02 12:13:48;;;;;;;2.38;1.50;;;24.80;52.70;;;23.42;36.14;100166.50;10387215;28;96646;-90
2023/05/02 12:18:52;;;;;;;3.83;1.63;;;25.00;52.70;;;23.43;37.08;100154.56;10401757;28;96587;-89
2023/05/02 12:23:56;;;;;;;5.93;1.85;;;25.00;53.20;;;23.72;36.18;100151.66;10385380;28;96432;-91
2023/05/02 12:29:00;;;;;;;3.58;1.80;;;25.40;53.10;;;24.07;36.04;100147.66;10386341;28;96612;-90
2023/05/02 12:34:03;;;;;;;2.60;1.55;;;25.80;52.50;;;24.02;35.42;100145.72;10385612;28;96444;-89
2023/05/02 12:39:06;;;;;;;5.18;1.73;;;25.70;51.60;;;23.93;35.17;100141.81;10359775;28;96662;-90
2023/05/02 12:44:09;;;;;;;3.60;1.77;;;25.50;51.60;;;23.75;35.25;100146.56;10334006;28;97171;-89
2023/05/02 12:49:12;;;;;;;6.90;1.40;;;25.40;51.70;;;23.54;36.50;100135.69;10354590;28;96566;-91
2023/05/02 12:54:20;;;;;;;3.83;1.48;;;25.00;52.20;;;23.30;35.39;100133.25;10356356;28;97415;-91
2023/05/02 12:59:29;;;;;;;6.03;1.58;;;24.80;52.00;;;23.16;35.13;100132.84;10336415;28;96443;-89
2023/05/02 13:04:40;;;;;;;4.67;1.57;;;24.60;51.90;;;23.01;34.72;100121.78;10317522;28;96560;-91
2023/05/02 13:09:43;;;;;;;4.60;1.42;;;24.40;51.40;;;22.88;34.20;100127.59;10319353;28;96515;-92
2023/05/02 13:14:46;;;;;;;4.53;1.40;;;24.20;50.80;;;22.88;34.46;100119.44;10338147;28;96646;-92
2023/05/02 13:19:50;;;;;;;7.28;1.40;;;24.10;51.30;;;22.83;34.41;100114.75;10300308;28;96685;-91
2023/05/02 13:25:05;;;;;;;6.85;1.80;;;24.10;51.20;;;22.66;34.59;100112.06;10317272;28;96860;-89
2023/05/02 13:30:09;;;;;;;4.35;1.42;;;24.00;51.00;;;22.58;34.92;100107.09;10333027;28;96491;-91
2023/05/02 13:35:14;;;;;;;2.95;1.25;;;23.80;51.30;;;22.54;35.43;100103.22;10332710;28;96543;-91
2023/05/02 13:40:17;;;;;;;3.05;1.40;;;23.80;51.60;;;22.48;35.78;100114.25;10353606;28;96478;-92
2023/05/02 13:45:21;;;;;;;3.55;1.60;;;23.70;51.80;;;22.41;35.55;100109.00;10404664;28;96946;-89
2023/05/02 13:50:24;;;;;;;2.30;1.45;;;23.60;51.80;;;22.37;35.66;100103.28;10379316;28;96659;-89
2023/05/02 13:55:27;;;;;;;3.28;1.05;;;23.60;51.90;;;22.34;35.06;100111.88;10355985;28;96567;-88
2023/05/02 14:00:30;;;;;;;3.40;1.40;;;23.50;52.20;;;22.32;34.90;100110.50;10357458;28;96605;-88
2023/05/02 14:05:33;;;;;;;5.47;1.45;;;23.50;51.40;;;22.28;35.45;100103.94;10362340;28;98001;-87
2023/05/02 14:10:36;;;;;;;3.22;1.15;;;23.50;51.90;;;22.19;35.70;100106.25;10351934;28;98279;-88
2023/05/02 14:15:39;;;;;;;6.68;1.60;;;23.40;52.00;;;22.19;35.96;100103.53;10351729;28;97718;-88
2023/05/02 14:20:42;;;;;;;4.05;1.40;;;23.30;52.10;;;22.20;36.64;100097.06;10396704;28;96725;-89
2023/05/02 14:25:46;;;;;;;6.00;1.60;;;23.30;52.50;;;22.16;36.08;100106.72;10378315;28;96991;-90
2023/05/02 14:30:50;;;;;;;2.60;1.38;;;23.30;52.50;;;22.01;35.98;100115.41;10367185;28;97288;-92
2023/05/02 14:35:53;;;;;;;3.75;1.30;;;23.20;52.20;;;21.47;41.41;100143.84;10357112;28;96498;-88
2023/05/02 14:40:56;;;;;;;5.47;1.50;;;22.80;55.50;;;20.69;43.65;100139.75;10404777;28;97586;-89
2023/05/02 14:45:59;;;;;;;3.53;1.52;;;22.20;58.00;;;20.27;49.38;100126.31;10399826;28;96584;-96
2023/05/02 14:51:04;;;;;;;3.72;1.73;;;21.70;61.30;;;19.90;53.58;100129.19;10416655;22;96744;-84
2023/05/02 14:56:13;;;;;;;2.70;1.60;;;21.30;63.60;;;19.77;55.72;100127.53;10455855;27;96614;-85
2023/05/02 15:01:22;;;;;;;4.50;2.08;;;21.10;66.20;;;19.75;56.08;100126.94;10408176;27;96564;-85
2023/05/02 15:06:31;;;;;;;4.57;1.73;;;21.10;67.50;;;19.86;57.50;100130.72;10416701;27;96557;-84
2023/05/02 15:11:35;;;;;;;2.10;1.60;;;21.20;68.70;;;19.96;56.24;100125.56;10436355;27;97274;-84
2023/05/02 15:16:38;;;;;;;3.25;1.77;;;21.20;68.30;;;20.02;55.56;100121.94;10435463;27;97688;-85
2023/05/02 15:21:41;;;;;;;3.00;1.83;;;21.30;68.50;;;20.09;55.23;100118.31;10415014;27;96640;-85
2023/05/02 15:26:45;;;;;;;4.75;1.67;;;21.40;68.90;;;20.13;55.33;100112.25;10420757;27;96438;-84
2023/05/02 15:31:48;;;;;;;6.40;1.42;;;21.40;69.30;;;20.18;55.20;100111.56;10433193;27;97427;-85
2023/05/02 15:36:51;;;;;;;2.33;1.63;;;21.40;69.50;;;20.19;54.49;100114.00;10429263;27;96523;-84
2023/05/02 15:41:54;;;;;;;3.00;1.42;;;21.40;69.30;;;20.17;54.62;100110.72;10462034;27;96521;-85
2023/05/02 15:46:59;;;;;;;3.35;1.73;;;21.40;69.40;;;20.15;54.48;100118.25;10417788;27;96604;-84
2023/05/02 15:52:02;;;;;;;3.50;1.80;;;21.30;69.70;;;20.16;54.77;100124.47;10426949;27;98216;-85
2023/05/02 15:57:05;;;;;;;2.25;1.52;;;21.30;70.60;;;20.22;54.76;100118.97;10428500;27;97343;-84
2023/05/02 16:02:08;;;;;;;4.22;1.50;;;21.40;70.20;;;20.27;54.33;100110.13;10458458;27;98580;-85
2023/05/02 16:07:11;;;;;;;2.50;1.55;;;21.50;69.70;;;20.32;54.11;100111.09;10400820;27;98584;-84
2023/05/02 16:12:14;;;;;;;2.97;1.58;;;21.50;70.30;;;20.34;54.82;100108.19;10409156;27;98823;-84
2023/05/02 16:17:17;;;;;;;5.07;1.63;;;21.50;70.60;;;20.36;55.80;100113.34;10457514;27;97224;-84
2023/05/02 16:22:21;;;;;;;6.00;2.40;;;21.50;71.00;;;20.35;56.96;100100.91;10440152;27;96747;-84
2023/05/02 16:27:24;;;;;;;4.65;2.75;;;21.50;71.70;;;20.31;56.54;100105.94;10434404;27;96550;-84
2023/05/02 16:32:27;;;;;;;8.18;2.90;;;21.50;72.10;;;20.30;55.97;100107.00;10439455;27;97528;-84
2023/05/02 16:37:32;;;;;;;3.65;2.30;;;21.40;72.80;;;20.25;55.79;100104.16;10442137;27;96626;-84
2023/05/02 16:42:36;;;;;;;4.00;2.72;;;21.40;72.70;;;20.21;56.85;100111.91;10404787;27;96934;-84
2023/05/02 16:47:39;;;;;;;6.80;4.20;;;21.30;73.10;;;20.13;56.87;100119.53;10396958;27;96665;-85
2023/05/02 16:52:43;;;;;;;6.18;3.60;;;21.20;73.90;;;20.05;57.54;100113.41;10434961;27;96669;-85
2023/05/02 16:57:46;;;;;;;6.88;2.90;;;21.20;74.10;;;19.97;57.21;100112.91;10426766;27;96562;-84
2023/05/02 17:02:53;;;;;;;9.68;3.90;;;21.10;74.10;;;19.88;57.22;100122.41;10417521;27;97002;-85
2023/05/02 17:07:57;;;;;;;6.63;4.15;;;21.00;74.30;;;19.76;57.96;100119.66;10441267;27;97414;-85
2023/05/02 17:13:00;;;;;;;14.15;4.15;;;21.00;74.90;;;19.68;58.79;100122.69;10397183;27;97046;-85
2023/05/02 17:18:03;;;;;;;9.25;4.63;;;20.90;75.30;;;19.52;59.04;100124.13;10417177;27;96933;-84
2023/05/02 17:23:07;;;;;;;11.77;7.15;;;20.80;75.60;;;19.33;58.74;100134.13;10426325;27;96648;-85
2023/05/02 17:28:11;;;;;;;4.80;3.28;;;20.60;76.00;;;19.06;56.91;100146.25;10390732;27;98427;-85
2023/05/02 17:33:14;;;;;;;8.20;5.15;;;20.30;75.40;;;18.84;55.80;100157.47;10437765;27;97400;-84
2023/05/02 17:38:27;;;;;;;4.97;3.45;;;20.10;74.90;;;18.67;55.41;100169.84;10419030;27;96671;-84
2023/05/02 17:43:31;;;;;;;6.80;3.55;;;19.80;74.30;;;18.55;54.53;100183.19;10412203;27;96977;-83
2023/05/02 17:48:34;;;;;;;6.38;2.80;;;19.70;73.70;;;18.48;53.67;100197.75;10410663;27;98146;-85
2023/05/02 17:53:38;;;;;;;6.15;3.30;;;19.60;73.00;;;18.38;56.14;100193.66;10413573;27;96675;-84
2023/05/02 17:58:40;;;;;;;5.60;2.80;;;19.60;74.20;;;18.17;59.31;100186.78;10411552;27;97135;-85
2023/05/02 18:03:44;;;;;;;4.75;3.42;;;19.30;77.60;;;17.81;62.68;100186.59;10421792;27;97995;-85
2023/05/02 18:08:47;;;;;;;7.28;3.55;;;19.00;80.40;;;17.47;64.61;100193.97;10396520;27;96561;-84
2023/05/02 18:13:50;;;;;;;3.97;3.58;;;18.60;82.70;;;17.15;65.72;100182.28;10409459;27;96800;-84
2023/05/02 18:18:54;;;;;;;7.70;3.20;;;18.40;84.40;;;16.96;66.41;100186.66;10400713;27;96620;-84
2023/05/02 18:23:56;;;;;;;7.63;4.65;;;18.10;85.20;;;16.88;66.20;100191.44;10415859;27;98844;-85
2023/05/02 18:28:59;;;;;;;7.95;5.10;;;18.00;85.30;;;16.80;66.71;100206.75;10425576;27;96777;-84
2023/05/02 18:34:03;;;;;;;6.35;4.68;;;17.90;86.20;;;16.72;66.76;100206.94;10395679;27;96621;-86
2023/05/02 18:39:09;;;;;;;10.20;5.30;;;17.90;86.80;;;16.69;66.43;100215.38;10385553;27;96814;-86
2023/05/02 18:44:12;;;;;;;5.70;3.30;;;17.80;86.40;;;16.68;65.88;100226.34;10384880;27;96571;-86
2023/05/02 18:49:16;;;;;;;3.70;2.90;;;17.80;86.20;;;16.70;65.05;100243.03;10400528;27;96657;-86
2023/05/02 18:54:21;;;;;;;4.97;3.35;;;17.80;85.80;;;16.71;64.61;100229.44;10441731;27;96990;-86
2023/05/02 18:59:25;;;;;;;6.57;3.85;;;17.80;85.70;;;16.70;65.31;100238.53;10434123;27;96614;-87
2023/05/02 19:04:31;;;;;;;6.10;4.63;;;17.80;85.90;;;16.60;67.44;100249.63;10465425;27;96630;-86
2023/05/02 19:09:34;;;;;;;7.25;4.80;;;17.70;87.40;;;16.52;67.55;100243.66;10399765;27;97323;-87
2023/05/02 19:14:39;;;;;;;11.43;6.38;;;17.70;88.50;;;16.44;68.44;100243.88;10444246;27;98754;-87
2023/05/02 19:19:45;;;;;;;7.93;5.05;;;17.60;89.60;;;16.30;70.39;100257.22;10400387;27;96655;-86
2023/05/02 19:24:49;;;;;;;7.63;5.63;;;17.50;90.80;;;16.16;71.51;100263.59;10448188;27;97321;-87
2023/05/02 19:29:53;;;;;;;7.90;5.72;;;17.30;91.50;;;16.03;72.72;100282.34;10424158;27;98368;-85
2023/05/02 19:34:56;;;;;;;8.38;5.25;;;17.20;92.50;;;15.89;73.67;100289.47;10439638;27;97368;-84
2023/05/02 19:39:59;;;;;;;7.40;4.50;;;17.10;93.20;;;15.84;73.39;100286.59;10432778;27;96643;-85
2023/05/02 19:45:03;;;;;;;5.10;3.75;;;17.00;93.70;;;15.84;72.59;100323.28;10413367;27;96464;-84
2023/05/02 19:50:07;;;;;;;5.05;4.10;;;17.00;93.70;;;15.86;73.22;100348.84;10419145;27;96694;-85
2023/05/02 19:55:11;;;;;;;6.90;5.07;;;17.00;93.80;;;15.79;74.03;100331.91;10347538;27;97955;-85
2023/05/02 20:00:14;;;;;;;7.97;6.00;;;17.00;94.60;;;15.62;76.64;100325.19;10378218;27;97404;-86
2023/05/02 20:05:18;;;;;;;10.30;5.80;;;16.80;96.60;;;15.41;77.85;100332.28;10352275;28;98610;-84
2023/05/02 20:10:21;;;;;;;6.25;5.32;;;16.60;97.70;;;15.22;79.80;100330.28;10373580;27;97195;-84
2023/05/02 20:15:24;;;;;;;6.60;5.20;;;16.40;99.90;;;15.11;80.16;100325.47;10377525;27;97375;-84
2023/05/02 20:20:29;;;;;;;5.72;4.22;;;16.30;99.90;;;15.07;79.96;100333.06;10356997;28;96741;-84
2023/05/02 20:25:31;;;;;;;5.50;3.63;;;16.20;99.90;;;15.09;78.94;100344.41;10343068;27;96620;-85
2023/05/02 20:30:35;;;;;;;4.80;3.15;;;16.20;99.90;;;15.16;78.25;100358.66;10364775;28;96959;-84
2023/05/02 20:35:38;;;;;;;5.97;3.03;;;16.30;99.90;;;15.20;77.75;100361.78;10358540;28;96858;-84
2023/05/02 20:40:41;;;;;;;3.88;3.22;;;16.40;99.90;;;15.24;78.37;100352.34;10372017;27;96811;-84
2023/05/02 20:45:45;;;;;;;3.88;2.97;;;16.40;99.90;;;15.21;79.45;100353.56;10390952;27;98586;-84
2023/05/02 20:50:53;;;;;;;3.22;2.70;;;16.40;99.90;;;15.15;79.75;100362.34;10362463;27;96807;-84
2023/05/02 20:55:56;;;;;;;3.97;3.35;;;16.30;99.90;;;14.99;80.99;100346.56;10398559;27;98539;-84